createdAt,value
2024-01-10T00:00:05.694Z,6.10
2024-01-10T00:02:33.495Z,6.83
2024-01-10T00:05:01.275Z,6.70
2024-01-10T00:07:28.980Z,8.70
2024-01-10T00:09:57.163Z,10.63
2024-01-10T00:12:24.872Z,11.27
2024-01-10T00:14:52.481Z,12.57
2024-01-10T00:17:20.157Z,6.53
2024-01-10T00:19:47.776Z,8.00
2024-01-10T00:22:15.443Z,11.40
2024-01-10T00:24:43.093Z,11.97
2024-01-10T00:27:11.407Z,8.87
2024-01-10T00:29:39.163Z,5.60
2024-01-10T00:32:07.431Z,6.17
2024-01-10T00:34:35.160Z,5.20
2024-01-10T00:37:02.807Z,4.70
2024-01-10T00:39:30.370Z,3.70
2024-01-10T00:41:57.989Z,3.50
2024-01-10T00:44:25.651Z,4.60
2024-01-10T00:46:53.411Z,3.87
2024-01-10T00:49:21.154Z,3.70
2024-01-10T00:51:49.551Z,3.80
2024-01-10T00:54:19.122Z,2.60
2024-01-10T00:56:47.624Z,11.30
2024-01-10T00:59:21.160Z,17.37
2024-01-10T01:01:50.860Z,10.63
2024-01-10T01:04:19.675Z,11.13
2024-01-10T01:06:48.136Z,7.07
2024-01-10T01:09:16.916Z,6.13
2024-01-10T01:11:45.542Z,5.20
2024-01-10T01:14:14.200Z,14.33
2024-01-10T01:16:43.613Z,6.07
2024-01-10T01:19:12.135Z,2.93
2024-01-10T01:21:40.639Z,7.10
2024-01-10T01:24:09.123Z,7.73
2024-01-10T01:26:36.986Z,13.40
2024-01-10T01:29:04.694Z,7.13
2024-01-10T01:31:32.934Z,5.47
2024-01-10T01:34:01.324Z,2.53
2024-01-10T01:36:29.756Z,3.00
2024-01-10T01:38:58.667Z,4.53
2024-01-10T01:41:27.328Z,2.37
2024-01-10T01:43:55.764Z,3.10
2024-01-10T01:46:24.879Z,3.13
2024-01-10T01:48:54.039Z,5.83
2024-01-10T01:51:24.617Z,5.73
2024-01-10T01:53:53.891Z,5.33
2024-01-10T01:56:22.691Z,13.33
2024-01-10T01:59:11.979Z,13.33
2024-01-10T02:01:56.095Z,14.47
2024-01-10T02:04:24.748Z,7.23
2024-01-10T02:06:52.620Z,6.57
2024-01-10T02:09:20.304Z,4.13
2024-01-10T02:11:47.978Z,2.80
2024-01-10T02:14:16.570Z,3.03
2024-01-10T02:16:44.234Z,2.03
2024-01-10T02:19:25.028Z,3.67
2024-01-10T02:21:52.898Z,5.03
2024-01-10T02:24:20.501Z,1.20
2024-01-10T02:26:48.874Z,4.03
2024-01-10T02:29:16.537Z,6.93
2024-01-10T02:31:44.263Z,3.27
2024-01-10T02:34:11.976Z,3.53
2024-01-10T02:36:39.602Z,2.53
2024-01-10T02:39:08.041Z,2.83
2024-01-10T02:41:35.818Z,6.40
2024-01-10T02:44:03.548Z,4.63
2024-01-10T02:46:31.221Z,8.20
2024-01-10T02:48:59.164Z,4.13
2024-01-10T02:51:28.904Z,9.80
2024-01-10T02:53:56.492Z,13.90
2024-01-10T02:56:24.234Z,7.70
2024-01-10T02:58:51.840Z,22.33
2024-01-10T03:01:19.808Z,11.50
2024-01-10T03:03:47.449Z,15.43
2024-01-10T03:06:15.092Z,27.03
2024-01-10T03:08:42.968Z,17.77
2024-01-10T03:11:10.689Z,16.63
2024-01-10T03:13:40.326Z,15.90
2024-01-10T03:16:08.010Z,14.93
2024-01-10T03:18:35.807Z,15.33
2024-01-10T03:21:03.620Z,8.27
2024-01-10T03:23:31.246Z,12.50
2024-01-10T03:25:59.019Z,36.00
2024-01-10T03:28:26.671Z,37.53
2024-01-10T03:30:54.321Z,16.77
2024-01-10T03:33:22.167Z,10.80
2024-01-10T03:35:49.826Z,5.53
2024-01-10T03:38:17.830Z,5.43
2024-01-10T03:40:45.936Z,5.43
2024-01-10T03:43:13.788Z,2.53
2024-01-10T03:45:41.509Z,1.83
2024-01-10T03:48:09.343Z,4.63
2024-01-10T03:50:37.038Z,2.20
2024-01-10T03:53:04.934Z,2.67
2024-01-10T03:55:32.711Z,1.50
2024-01-10T03:58:00.519Z,3.07
2024-01-10T04:00:28.080Z,5.53
2024-01-10T04:02:55.740Z,2.00
2024-01-10T04:05:25.950Z,2.03
2024-01-10T04:07:53.801Z,2.93
2024-01-10T04:10:22.290Z,6.80
2024-01-10T04:12:50.753Z,6.23
2024-01-10T04:15:21.435Z,2.27
2024-01-10T04:17:49.152Z,2.27
2024-01-10T04:20:17.008Z,2.03
2024-01-10T04:22:44.694Z,2.37
2024-01-10T04:25:12.612Z,3.27
2024-01-10T04:27:40.258Z,2.20
2024-01-10T04:30:08.455Z,8.37
2024-01-10T04:32:36.579Z,5.90
2024-01-10T04:35:04.982Z,4.87
2024-01-10T04:37:32.928Z,6.97
2024-01-10T04:40:00.511Z,20.23
2024-01-10T04:42:28.071Z,7.63
2024-01-10T04:44:55.951Z,15.83
2024-01-10T04:47:23.689Z,14.93
2024-01-10T04:49:51.379Z,11.60
2024-01-10T04:52:19.333Z,9.17
2024-01-10T04:54:46.899Z,8.90
2024-01-10T04:57:14.574Z,14.13
2024-01-10T04:59:42.181Z,11.23
2024-01-10T05:02:09.933Z,12.60
2024-01-10T05:04:37.830Z,8.43
2024-01-10T05:07:05.737Z,8.70
2024-01-10T05:09:33.373Z,11.70
2024-01-10T05:12:01.128Z,14.03
2024-01-10T05:14:28.774Z,6.77
2024-01-10T05:16:56.360Z,3.47
2024-01-10T05:19:23.959Z,9.00
2024-01-10T05:21:51.617Z,10.80
2024-01-10T05:24:20.717Z,13.47
2024-01-10T05:26:48.387Z,16.30
2024-01-10T05:29:16.504Z,10.63
2024-01-10T05:31:44.207Z,9.03
2024-01-10T05:34:11.816Z,8.43
2024-01-10T05:36:39.516Z,7.37
2024-01-10T05:39:07.097Z,8.60
2024-01-10T05:41:35.861Z,18.83
2024-01-10T05:44:06.137Z,11.73
2024-01-10T05:46:33.814Z,14.40
2024-01-10T05:49:01.476Z,21.47
2024-01-10T05:51:29.398Z,24.27
2024-01-10T05:53:56.988Z,20.70
2024-01-10T05:56:24.599Z,18.70
2024-01-10T05:58:52.862Z,27.03
2024-01-10T06:01:20.696Z,38.13
2024-01-10T06:03:48.425Z,20.00
2024-01-10T06:06:16.330Z,12.87
2024-01-10T06:08:44.418Z,15.70
2024-01-10T06:11:12.564Z,8.53
2024-01-10T06:13:46.406Z,36.30
2024-01-10T06:16:21.815Z,52.93
2024-01-10T06:18:50.243Z,68.83
2024-01-10T06:21:18.146Z,56.93
2024-01-10T06:23:45.800Z,43.17
2024-01-10T06:26:13.571Z,23.93
2024-01-10T06:28:41.348Z,12.17
2024-01-10T06:31:12.374Z,12.83
2024-01-10T06:33:40.574Z,24.83
2024-01-10T06:36:08.774Z,34.13
2024-01-10T06:38:36.713Z,38.40
2024-01-10T06:41:11.769Z,31.70
2024-01-10T06:43:39.560Z,8.87
2024-01-10T06:46:07.273Z,21.00
2024-01-10T06:48:34.901Z,32.33
2024-01-10T06:51:02.675Z,47.83
2024-01-10T06:53:31.173Z,42.20
2024-01-10T06:55:58.845Z,44.57
2024-01-10T06:58:26.578Z,78.40
2024-01-10T07:00:54.277Z,40.40
2024-01-10T07:03:22.084Z,52.73
2024-01-10T07:05:49.807Z,70.33
2024-01-10T07:08:18.089Z,86.93
2024-01-10T07:10:45.841Z,77.67
2024-01-10T07:13:13.569Z,78.27
2024-01-10T07:15:41.203Z,74.53
2024-01-10T07:18:09.043Z,60.77
2024-01-10T07:20:36.806Z,45.17
2024-01-10T07:23:04.895Z,35.17
2024-01-10T07:25:32.661Z,22.93
2024-01-10T07:28:00.674Z,42.33
2024-01-10T07:30:28.621Z,29.97
2024-01-10T07:32:56.912Z,40.10
2024-01-10T07:35:25.009Z,36.83
2024-01-10T07:37:52.787Z,51.63
2024-01-10T07:40:21.275Z,74.27
2024-01-10T07:42:48.981Z,72.50
2024-01-10T07:45:16.667Z,101.57
2024-01-10T07:47:44.247Z,69.17
2024-01-10T07:50:16.090Z,74.73
2024-01-10T07:52:45.109Z,67.72
2024-01-10T07:55:12.909Z,74.73
2024-01-10T07:57:40.546Z,77.60
2024-01-10T08:00:12.450Z,75.53
2024-01-10T08:02:41.099Z,70.67
2024-01-10T08:05:12.046Z,61.17
2024-01-10T08:07:40.453Z,54.30
2024-01-10T08:10:11.123Z,47.23
2024-01-10T08:12:40.277Z,46.93
2024-01-10T08:15:08.409Z,40.23
2024-01-10T08:17:39.064Z,32.40
2024-01-10T08:20:09.913Z,33.03
2024-01-10T08:22:38.940Z,29.27
2024-01-10T08:25:07.276Z,23.93
2024-01-10T08:27:34.842Z,19.97
2024-01-10T08:30:06.048Z,25.07
2024-01-10T08:32:34.690Z,25.50
2024-01-10T08:35:03.315Z,42.80
2024-01-10T08:37:31.031Z,37.90
2024-01-10T08:40:00.368Z,40.17
2024-01-10T08:42:27.933Z,58.97
2024-01-10T08:44:57.207Z,78.97
2024-01-10T08:47:24.955Z,63.80
2024-01-10T08:49:52.801Z,48.23
2024-01-10T08:52:20.407Z,51.77
2024-01-10T08:54:48.084Z,58.40
2024-01-10T08:57:15.712Z,52.23
2024-01-10T08:59:43.792Z,49.67
2024-01-10T09:02:12.149Z,52.47
2024-01-10T09:04:40.534Z,69.13
2024-01-10T09:07:10.698Z,60.40
2024-01-10T09:09:38.409Z,60.77
2024-01-10T09:12:06.352Z,60.27
2024-01-10T09:14:34.107Z,39.97
2024-01-10T09:17:03.924Z,28.93
2024-01-10T09:19:32.479Z,22.07
2024-01-10T09:22:00.243Z,17.83
2024-01-10T09:24:29.910Z,17.77
2024-01-10T09:26:58.710Z,15.43
2024-01-10T09:29:27.398Z,17.27
2024-01-10T09:31:56.067Z,11.67
2024-01-10T09:34:24.339Z,14.67
2024-01-10T09:36:53.486Z,11.20
2024-01-10T09:39:21.111Z,11.30
2024-01-10T09:41:51.527Z,11.93
2024-01-10T09:44:21.282Z,8.53
2024-01-10T09:46:54.168Z,13.60
2024-01-10T09:51:58.702Z,10.93
2024-01-10T09:54:27.607Z,13.13
2024-01-10T09:56:55.437Z,15.13
2024-01-10T09:59:23.228Z,18.43
2024-01-10T10:01:53.305Z,11.87
2024-01-10T10:04:22.400Z,9.60
2024-01-10T10:07:00.362Z,15.63
2024-01-10T10:09:31.207Z,18.47
2024-01-10T10:11:59.162Z,29.50
2024-01-10T10:14:30.584Z,25.60
2024-01-10T10:17:14.478Z,15.63
2024-01-10T10:19:42.157Z,14.90
2024-01-10T10:22:10.763Z,11.90
2024-01-10T10:24:39.903Z,18.53
2024-01-10T10:27:14.920Z,12.80
2024-01-10T10:29:45.874Z,12.93
2024-01-10T10:32:14.955Z,18.48
2024-01-10T10:34:42.609Z,7.73
2024-01-10T10:37:10.330Z,7.90
2024-01-10T10:39:39.167Z,10.70
2024-01-10T10:42:07.947Z,10.67
2024-01-10T10:44:39.369Z,9.30
2024-01-10T10:47:13.539Z,6.00
2024-01-10T10:49:53.354Z,11.27
2024-01-10T10:52:24.258Z,12.47
2024-01-10T10:54:56.361Z,13.30
2024-01-10T10:57:29.018Z,13.80
2024-01-10T10:59:58.452Z,13.23
2024-01-10T11:02:30.328Z,9.47
2024-01-10T11:05:00.818Z,13.37
2024-01-10T11:07:29.114Z,12.87
2024-01-10T11:09:58.894Z,11.87
2024-01-10T11:12:35.203Z,10.20
2024-01-10T11:15:21.921Z,11.43
2024-01-10T11:18:23.283Z,13.77
2024-01-10T11:21:26.094Z,12.00
2024-01-10T11:23:57.577Z,10.50
2024-01-10T11:26:25.974Z,10.63
2024-01-10T11:28:54.240Z,18.83
2024-01-10T11:31:32.630Z,12.53
2024-01-10T11:34:03.877Z,14.47
2024-01-10T11:36:33.236Z,13.73
2024-01-10T11:39:04.693Z,12.67
2024-01-10T11:41:33.712Z,15.03
2024-01-10T11:44:19.637Z,7.87
2024-01-10T11:46:53.912Z,8.10
2024-01-10T11:49:23.285Z,8.10
2024-01-10T11:51:53.896Z,10.85
2024-01-10T11:54:46.649Z,9.97
2024-01-10T11:57:23.147Z,8.10
2024-01-10T11:59:57.772Z,8.73
2024-01-10T12:02:27.280Z,5.90
2024-01-10T12:04:56.572Z,8.10
2024-01-10T12:07:26.203Z,10.83
2024-01-10T12:09:53.977Z,6.40
2024-01-10T12:12:21.648Z,5.50
2024-01-10T12:14:49.385Z,7.23
2024-01-10T12:17:17.996Z,6.27
2024-01-10T12:19:47.399Z,7.73
2024-01-10T12:22:18.296Z,6.30
2024-01-10T12:24:49.864Z,7.83
2024-01-10T12:27:22.362Z,10.30
2024-01-10T12:29:55.276Z,13.57
2024-01-10T12:32:25.578Z,9.50
2024-01-10T12:35:07.375Z,8.10
2024-01-10T12:37:35.114Z,11.07
2024-01-10T12:40:09.548Z,10.77
2024-01-10T12:42:39.602Z,14.13
2024-01-10T12:45:21.087Z,10.18
2024-01-10T12:47:49.196Z,14.33
2024-01-10T12:50:17.200Z,11.87
2024-01-10T12:52:45.676Z,11.87
2024-01-10T12:55:13.468Z,10.67
2024-01-10T12:57:41.188Z,15.37
2024-01-10T13:00:09.892Z,17.90
2024-01-10T13:02:38.650Z,27.70
2024-01-10T13:05:10.509Z,15.47
2024-01-10T13:07:38.283Z,65.23
2024-01-10T13:10:06.083Z,18.03
2024-01-10T13:12:33.900Z,15.77
2024-01-10T13:15:02.985Z,16.50
2024-01-10T13:17:31.766Z,15.48
2024-01-10T13:19:59.533Z,23.57
2024-01-10T13:22:27.461Z,12.77
2024-01-10T13:24:55.254Z,24.77
2024-01-10T13:27:23.006Z,10.93
2024-01-10T13:29:50.632Z,14.10
2024-01-10T13:32:18.268Z,20.00
2024-01-10T13:34:46.249Z,15.60
2024-01-10T13:37:14.068Z,22.90
2024-01-10T13:39:44.566Z,12.50
2024-01-10T13:42:12.363Z,16.20
2024-01-10T13:44:40.402Z,12.05
2024-01-10T13:47:08.086Z,9.00
2024-01-10T13:49:35.732Z,12.77
2024-01-10T13:52:03.531Z,16.60
2024-01-10T13:54:31.081Z,13.20
2024-01-10T13:56:58.647Z,12.48
2024-01-10T13:59:26.303Z,16.00
2024-01-10T14:01:54.432Z,13.65
2024-01-10T14:04:23.984Z,17.40
2024-01-10T14:06:51.875Z,21.70
2024-01-10T14:09:20.201Z,16.75
2024-01-10T14:11:50.015Z,26.75
2024-01-10T14:14:20.749Z,58.40
2024-01-10T14:16:50.740Z,86.73
2024-01-10T14:19:18.479Z,71.57
2024-01-10T14:21:48.853Z,35.75
2024-01-10T14:24:16.968Z,29.40
2024-01-10T14:26:45.195Z,41.35
2024-01-10T14:29:12.823Z,23.77
2024-01-10T14:34:11.110Z,76.17
2024-01-10T14:36:39.074Z,141.77
2024-01-10T14:39:08.993Z,73.40
2024-01-10T14:41:36.756Z,53.27
2024-01-10T14:44:04.979Z,60.57
2024-01-10T14:46:32.726Z,57.10
2024-01-10T14:49:00.671Z,27.20
2024-01-10T14:51:28.382Z,21.33
2024-01-10T14:53:56.037Z,25.83
2024-01-10T14:56:24.649Z,17.27
2024-01-10T14:58:55.377Z,15.40
2024-01-10T15:01:23.097Z,19.80
2024-01-10T15:03:53.471Z,22.90
2024-01-10T15:06:21.691Z,33.00
2024-01-10T15:08:49.449Z,31.43
2024-01-10T15:11:17.773Z,30.87
2024-01-10T15:13:47.887Z,35.57
2024-01-10T15:16:16.973Z,25.97
2024-01-10T15:18:44.988Z,27.57
2024-01-10T15:21:13.667Z,30.17
2024-01-10T15:23:42.578Z,49.80
2024-01-10T15:26:10.173Z,33.70
2024-01-10T15:28:39.330Z,46.40
2024-01-10T15:31:07.433Z,29.03
2024-01-10T15:33:37.177Z,58.47
2024-01-10T15:36:06.311Z,55.93
2024-01-10T15:38:33.870Z,51.40
2024-01-10T15:41:02.714Z,23.93
2024-01-10T15:43:30.480Z,42.10
2024-01-10T15:45:58.134Z,66.60
2024-01-10T15:48:26.126Z,31.03
2024-01-10T15:50:53.781Z,33.63
2024-01-10T15:53:23.806Z,44.30
2024-01-10T15:55:52.443Z,26.67
2024-01-10T15:58:20.744Z,39.63
2024-01-10T16:00:48.339Z,44.60
2024-01-10T16:03:15.971Z,64.77
2024-01-10T16:05:44.034Z,56.00
2024-01-10T16:08:11.803Z,67.47
2024-01-10T16:10:41.119Z,38.17
2024-01-10T16:13:08.786Z,30.13
2024-01-10T16:15:36.384Z,36.87
2024-01-10T16:18:04.795Z,41.47
2024-01-10T16:20:32.846Z,25.80
2024-01-10T16:23:02.104Z,10.50
2024-01-10T16:25:29.792Z,12.10
2024-01-10T16:27:57.450Z,33.57
2024-01-10T16:30:25.098Z,27.43
2024-01-10T16:32:52.864Z,29.67
2024-01-10T16:35:20.635Z,19.37
2024-01-10T16:37:48.671Z,16.17
2024-01-10T16:40:19.093Z,21.90
2024-01-10T16:42:46.725Z,23.57
2024-01-10T16:45:14.628Z,18.20
2024-01-10T16:47:42.540Z,15.00
2024-01-10T16:50:12.245Z,10.73
2024-01-10T16:52:40.290Z,10.87
2024-01-10T16:55:08.346Z,11.57
2024-01-10T16:57:36.248Z,19.57
2024-01-10T17:00:07.620Z,31.27
2024-01-10T17:02:35.469Z,20.37
2024-01-10T17:05:05.486Z,25.80
2024-01-10T17:07:37.592Z,54.00
2024-01-10T17:10:06.794Z,59.37
2024-01-10T17:12:42.868Z,68.63
2024-01-10T17:15:11.281Z,43.13
2024-01-10T17:17:39.192Z,67.47
2024-01-10T17:20:09.480Z,64.43
2024-01-10T17:22:39.894Z,50.40
2024-01-10T17:25:09.857Z,42.40
2024-01-10T17:27:38.684Z,52.97
2024-01-10T17:30:07.698Z,16.87
2024-01-10T17:32:35.656Z,24.17
2024-01-10T17:35:03.990Z,39.90
2024-01-10T17:37:31.741Z,61.37
2024-01-10T17:39:59.345Z,174.20
2024-01-10T17:42:27.145Z,123.43
2024-01-10T17:44:54.936Z,67.67
2024-01-10T17:47:23.911Z,98.53
2024-01-10T17:49:51.813Z,113.87
2024-01-10T17:52:19.447Z,83.67
2024-01-10T17:54:47.501Z,59.00
2024-01-10T17:57:15.132Z,38.53
2024-01-10T17:59:42.871Z,41.50
2024-01-10T18:02:10.608Z,38.47
2024-01-10T18:04:39.311Z,38.80
2024-01-10T18:07:09.788Z,20.03
2024-01-10T18:09:37.601Z,22.13
2024-01-10T18:12:05.756Z,10.03
2024-01-10T18:14:35.191Z,11.83
2024-01-10T18:17:03.024Z,11.17
2024-01-10T18:19:30.727Z,28.33
2024-01-10T18:21:58.509Z,14.80
2024-01-10T18:24:26.251Z,26.33
2024-01-10T18:26:53.885Z,18.97
2024-01-10T18:29:21.889Z,21.20
2024-01-10T18:31:50.128Z,13.10
2024-01-10T18:34:18.252Z,10.27
2024-01-10T18:36:45.937Z,13.93
2024-01-10T18:39:14.358Z,12.23
2024-01-10T18:41:43.719Z,27.63
2024-01-10T18:44:11.482Z,25.07
2024-01-10T18:46:39.207Z,27.80
2024-01-10T18:49:08.868Z,42.90
2024-01-10T18:51:36.518Z,25.10
2024-01-10T18:54:04.426Z,19.90
2024-01-10T18:56:32.266Z,10.77
2024-01-10T18:59:00.937Z,15.47
2024-01-10T19:01:30.290Z,6.73
2024-01-10T19:03:59.975Z,7.30
2024-01-10T19:06:27.752Z,4.27
2024-01-10T19:08:55.464Z,3.20
2024-01-10T19:11:23.134Z,4.30
2024-01-10T19:13:50.899Z,6.90
2024-01-10T19:16:18.788Z,13.53
2024-01-10T19:18:46.653Z,17.97
2024-01-10T19:21:15.449Z,18.70
2024-01-10T19:23:46.501Z,7.77
2024-01-10T19:26:26.723Z,7.07
2024-01-10T19:28:55.069Z,16.60
2024-01-10T19:31:22.985Z,41.17
2024-01-10T19:33:52.439Z,38.73
2024-01-10T19:36:24.001Z,40.37
2024-01-10T19:38:53.811Z,24.10
2024-01-10T19:41:26.334Z,20.57
2024-01-10T19:43:54.539Z,21.35
2024-01-10T19:46:22.177Z,33.87
2024-01-10T19:48:52.011Z,39.40
2024-01-10T19:51:20.015Z,39.67
2024-01-10T19:53:50.519Z,46.93
2024-01-10T19:56:18.924Z,51.20
2024-01-10T19:58:46.754Z,50.17
2024-01-10T20:01:14.811Z,48.57
2024-01-10T20:03:43.107Z,31.83
2024-01-10T20:06:11.011Z,45.43
2024-01-10T20:08:38.869Z,44.93
2024-01-10T20:11:06.771Z,41.03
2024-01-10T20:13:34.362Z,42.07
2024-01-10T20:16:04.312Z,30.57
2024-01-10T20:18:32.735Z,36.03
2024-01-10T20:21:01.176Z,46.93
2024-01-10T20:23:28.870Z,38.57
2024-01-10T20:25:56.669Z,30.87
2024-01-10T20:28:25.534Z,59.33
2024-01-10T20:30:53.979Z,55.47
2024-01-10T20:33:21.947Z,59.20
2024-01-10T20:35:49.911Z,41.10
2024-01-10T20:38:17.769Z,13.33
2024-01-10T20:40:46.232Z,19.77
2024-01-10T20:43:13.842Z,14.73
2024-01-10T20:45:41.495Z,15.70
2024-01-10T20:48:10.583Z,17.60
2024-01-10T20:50:38.419Z,17.00
2024-01-10T20:53:06.350Z,22.73
2024-01-10T20:55:34.007Z,29.73
2024-01-10T20:58:01.699Z,43.60
2024-01-10T21:00:29.692Z,23.93
2024-01-10T21:02:57.392Z,13.10
2024-01-10T21:05:25.043Z,15.70
2024-01-10T21:07:53.157Z,17.07
2024-01-10T21:10:21.455Z,33.03
2024-01-10T21:12:49.078Z,35.13
2024-01-10T21:15:16.676Z,31.00
2024-01-10T21:17:44.383Z,35.90
2024-01-10T21:20:12.428Z,63.37
2024-01-10T21:22:40.145Z,62.97
2024-01-10T21:25:08.488Z,73.87
2024-01-10T21:27:36.178Z,53.57
2024-01-10T21:30:05.568Z,38.40
2024-01-10T21:32:33.338Z,77.97
2024-01-10T21:35:01.066Z,57.70
2024-01-10T21:37:28.849Z,66.33
2024-01-10T21:39:56.483Z,35.47
2024-01-10T21:42:24.528Z,30.33
2024-01-10T21:44:52.124Z,16.53
2024-01-10T21:47:19.831Z,21.23
2024-01-10T21:49:47.522Z,42.17
2024-01-10T21:52:15.193Z,36.13
2024-01-10T21:54:42.774Z,22.80
2024-01-10T21:57:10.324Z,16.03
2024-01-10T21:59:40.209Z,17.30
2024-01-10T22:02:07.912Z,15.30
2024-01-10T22:04:35.698Z,9.97
2024-01-10T22:07:04.163Z,11.73
2024-01-10T22:09:31.760Z,13.67
2024-01-10T22:11:59.499Z,8.27
2024-01-10T22:14:27.170Z,10.37
2024-01-10T22:16:56.200Z,9.23
2024-01-10T22:19:24.075Z,7.93
2024-01-10T22:21:52.823Z,10.17
2024-01-10T22:24:20.402Z,11.60
2024-01-10T22:26:48.917Z,9.83
2024-01-10T22:29:16.544Z,14.67
2024-01-10T22:31:44.179Z,15.10
2024-01-10T22:34:12.133Z,21.37
2024-01-10T22:36:39.801Z,23.33
2024-01-10T22:39:07.410Z,21.37
2024-01-10T22:41:35.174Z,29.20
2024-01-10T22:44:02.916Z,38.40
2024-01-10T22:46:31.132Z,25.90
2024-01-10T22:48:58.739Z,24.70
2024-01-10T22:51:26.369Z,24.73
2024-01-10T22:53:54.026Z,27.13
2024-01-10T22:56:21.691Z,24.93
2024-01-10T22:58:49.278Z,23.23
2024-01-10T23:01:17.099Z,11.20
2024-01-10T23:03:44.740Z,6.23
2024-01-10T23:06:12.542Z,7.33
2024-01-10T23:08:40.175Z,18.70
2024-01-10T23:11:07.868Z,25.37
2024-01-10T23:13:36.375Z,16.50
2024-01-10T23:16:05.058Z,10.80
2024-01-10T23:18:33.220Z,9.13
2024-01-10T23:21:01.068Z,10.47
2024-01-10T23:23:28.833Z,11.57
2024-01-10T23:25:56.455Z,18.87
2024-01-10T23:28:24.052Z,12.80
2024-01-10T23:30:51.772Z,11.93
2024-01-10T23:33:19.448Z,12.43
2024-01-10T23:35:49.315Z,8.67
2024-01-10T23:38:17.787Z,18.63
2024-01-10T23:40:45.881Z,8.77
2024-01-10T23:43:23.780Z,19.67
2024-01-10T23:45:56.772Z,19.20
2024-01-10T23:48:25.135Z,18.10
2024-01-10T23:50:53.075Z,25.07
2024-01-10T23:53:20.945Z,18.77
2024-01-10T23:55:48.773Z,15.90
2024-01-10T23:58:16.378Z,14.43
